Augusta, Kansas
Current Conditions -  °F | °C
As of 10:15 PM on Wednesday 26 Nov 2014 (Local Time) from KEQA Reporting Station
Clear Clear  
Wind Chill: -6°   Ceiling: Unl
Heat Index: -1°   Visibility: 10mi
Dew Point: -5°   Wind: 9mph
Humidity: 75%   Direction: 350°N
Pressure: 30.41"   Gusts: NA
Location:  37.68°N, 96.98°W
Report Text: KEQA 270415Z AUTO 35008KT 10SM CLR M01/M05 A3041 RMK AO2
Loading
Personal Weather Stations






























Interactive Weather Map New forecast layout! Learn more

10-Day Weather Forecast

Advertisements
Track Severe Weather on mobile